createdAt,value
2023-05-17T00:01:55.712Z,58.91
2023-05-17T00:04:24.636Z,59.22
2023-05-17T00:06:53.309Z,59.19
2023-05-17T00:09:22.141Z,59.06
2023-05-17T00:11:50.610Z,59.17
2023-05-17T00:14:19.394Z,59.23
2023-05-17T00:16:47.802Z,59.11
2023-05-17T00:19:16.670Z,59.33
2023-05-17T00:21:45.264Z,59.40
2023-05-17T00:24:14.127Z,59.32
2023-05-17T00:26:42.558Z,59.43
2023-05-17T00:29:11.327Z,59.20
2023-05-17T00:31:39.779Z,59.41
2023-05-17T00:34:08.576Z,59.30
2023-05-17T00:36:37.008Z,59.53
2023-05-17T00:39:05.917Z,59.42
2023-05-17T00:41:34.355Z,59.54
2023-05-17T00:44:03.448Z,59.64
2023-05-17T00:46:34.144Z,59.46
2023-05-17T00:49:03.067Z,59.61
2023-05-17T00:51:31.827Z,59.40
2023-05-17T00:54:00.738Z,59.49
2023-05-17T00:56:29.232Z,59.44
2023-05-17T00:58:58.031Z,59.56
2023-05-17T01:01:27.390Z,59.69
2023-05-17T01:03:56.682Z,59.69
2023-05-17T01:06:25.177Z,59.74
2023-05-17T01:08:53.961Z,59.80
2023-05-17T01:12:12.183Z,59.94
2023-05-17T01:15:17.617Z,60.01
2023-05-17T01:17:54.929Z,59.82
2023-05-17T01:20:39.303Z,59.90
2023-05-17T01:23:37.206Z,60.02
2023-05-17T01:26:16.041Z,60.08
2023-05-17T01:28:49.326Z,60.16
2023-05-17T01:31:18.807Z,60.07
2023-05-17T01:33:47.863Z,59.95
2023-05-17T01:36:16.886Z,60.05
2023-05-17T01:38:45.319Z,60.17
2023-05-17T01:41:34.656Z,59.95
2023-05-17T01:44:38.495Z,60.10
2023-05-17T01:47:38.403Z,60.09
2023-05-17T01:50:07.686Z,60.25
2023-05-17T01:53:22.982Z,60.28
2023-05-17T01:56:05.062Z,60.12
2023-05-17T01:58:48.987Z,60.16
2023-05-17T02:01:19.272Z,60.07
2023-05-17T02:03:51.438Z,59.94
2023-05-17T02:06:19.874Z,60.10
2023-05-17T02:08:48.679Z,60.00
2023-05-17T02:11:17.186Z,60.22
2023-05-17T02:13:46.177Z,60.34
2023-05-17T02:16:14.618Z,60.04
2023-05-17T02:18:43.383Z,60.11
2023-05-17T02:21:13.558Z,60.24
2023-05-17T02:23:42.397Z,60.31
2023-05-17T02:26:11.098Z,60.13
2023-05-17T02:28:39.897Z,60.41
2023-05-17T02:31:11.518Z,60.32
2023-05-17T02:33:40.376Z,60.35
2023-05-17T02:36:09.210Z,60.32
2023-05-17T02:38:37.874Z,60.50
2023-05-17T02:41:06.878Z,60.49
2023-05-17T02:43:35.571Z,60.47
2023-05-17T02:46:06.347Z,60.35
2023-05-17T02:48:35.417Z,60.48
2023-05-17T02:51:03.904Z,60.58
2023-05-17T02:53:33.677Z,60.48
2023-05-17T02:56:02.197Z,60.67
2023-05-17T02:58:30.944Z,60.53
2023-05-17T03:00:59.378Z,60.49
2023-05-17T03:03:28.390Z,60.51
2023-05-17T03:06:01.988Z,60.40
2023-05-17T03:08:31.725Z,60.75
2023-05-17T03:11:02.030Z,60.63
2023-05-17T03:13:31.156Z,60.56
2023-05-17T03:16:00.256Z,60.64
2023-05-17T03:18:30.123Z,60.78
2023-05-17T03:20:59.234Z,60.75
2023-05-17T03:23:28.108Z,60.58
2023-05-17T03:26:01.786Z,60.69
2023-05-17T03:28:34.384Z,60.77
2023-05-17T03:31:02.982Z,60.88
2023-05-17T03:33:34.700Z,60.84
2023-05-17T03:36:04.075Z,60.89
2023-05-17T03:38:32.931Z,60.68
2023-05-17T03:41:01.345Z,60.85
2023-05-17T03:43:30.251Z,60.93
2023-05-17T03:46:00.574Z,60.88
2023-05-17T03:48:33.824Z,60.92
2023-05-17T03:51:05.649Z,61.08
2023-05-17T03:53:41.359Z,61.14
2023-05-17T03:56:10.868Z,60.98
2023-05-17T03:58:40.098Z,61.22
2023-05-17T04:01:09.042Z,61.11
2023-05-17T04:03:37.960Z,60.96
2023-05-17T04:06:07.822Z,61.21
2023-05-17T04:08:38.957Z,60.91
2023-05-17T04:11:11.893Z,60.94
2023-05-17T04:13:41.843Z,61.22
2023-05-17T04:16:11.583Z,61.17
2023-05-17T04:18:43.353Z,61.04
2023-05-17T04:21:13.589Z,61.03
2023-05-17T04:23:42.804Z,61.24
2023-05-17T04:26:11.449Z,61.32
2023-05-17T04:28:41.855Z,61.35
2023-05-17T04:31:13.761Z,61.29
2023-05-17T04:33:42.708Z,61.10
2023-05-17T04:36:12.252Z,61.39
2023-05-17T04:38:42.264Z,61.18
2023-05-17T04:41:14.064Z,61.29
2023-05-17T04:43:44.513Z,61.35
2023-05-17T04:46:21.744Z,61.24
2023-05-17T04:48:50.803Z,61.50
2023-05-17T04:51:20.022Z,61.41
2023-05-17T04:53:49.395Z,61.28
2023-05-17T04:56:19.970Z,61.60
2023-05-17T04:58:49.600Z,61.52
2023-05-17T05:01:19.612Z,61.33
2023-05-17T05:03:48.556Z,61.78
2023-05-17T05:06:17.149Z,61.83
2023-05-17T05:08:46.423Z,61.77
2023-05-17T05:11:15.207Z,61.90
2023-05-17T05:13:44.293Z,62.06
2023-05-17T05:16:12.918Z,61.87
2023-05-17T05:18:41.964Z,61.96
2023-05-17T05:21:10.588Z,61.97
2023-05-17T05:23:40.320Z,61.79
2023-05-17T05:26:09.095Z,61.79
2023-05-17T05:28:37.990Z,61.91
2023-05-17T05:31:06.589Z,61.93
2023-05-17T05:33:44.809Z,61.90
2023-05-17T05:36:14.859Z,62.81
2023-05-17T05:38:43.897Z,63.36
2023-05-17T05:41:12.761Z,63.55
2023-05-17T05:43:43.133Z,63.57
2023-05-17T05:46:11.670Z,63.81
2023-05-17T05:48:42.782Z,64.00
2023-05-17T05:51:11.551Z,63.93
2023-05-17T05:53:43.832Z,63.51
2023-05-17T05:56:12.331Z,63.64
2023-05-17T05:58:41.205Z,63.22
2023-05-17T06:01:14.420Z,62.96
2023-05-17T06:03:43.246Z,63.15
2023-05-17T06:06:11.938Z,63.29
2023-05-17T06:08:40.975Z,63.08
2023-05-17T06:11:09.476Z,62.99
2023-05-17T06:13:38.370Z,63.21
2023-05-17T06:16:07.334Z,63.14
2023-05-17T06:18:36.424Z,63.20
2023-05-17T06:21:05.297Z,63.09
2023-05-17T06:23:34.165Z,63.18
2023-05-17T06:26:02.687Z,62.90
2023-05-17T06:28:31.620Z,62.96
2023-05-17T06:31:00.148Z,63.00
2023-05-17T06:33:29.153Z,63.11
2023-05-17T06:35:58.372Z,63.02
2023-05-17T06:38:27.998Z,62.96
2023-05-17T06:40:58.000Z,62.92
2023-05-17T06:43:27.108Z,63.09
2023-05-17T06:45:55.720Z,62.73
2023-05-17T06:48:24.954Z,62.96
2023-05-17T06:50:54.291Z,62.83
2023-05-17T06:53:23.502Z,62.66
2023-05-17T06:55:51.980Z,62.88
2023-05-17T06:58:20.841Z,62.88
2023-05-17T07:00:49.320Z,62.93
2023-05-17T07:03:18.261Z,62.87
2023-05-17T07:05:47.032Z,62.97
2023-05-17T07:08:16.059Z,62.80
2023-05-17T07:10:44.891Z,62.76
2023-05-17T07:13:13.732Z,62.89
2023-05-17T07:15:42.282Z,62.85
2023-05-17T07:18:11.320Z,62.96
2023-05-17T07:20:39.885Z,62.82
2023-05-17T07:23:08.822Z,62.97
2023-05-17T07:25:40.785Z,63.01
2023-05-17T07:28:09.531Z,62.76
2023-05-17T07:30:38.107Z,62.75
2023-05-17T07:33:07.182Z,62.81
2023-05-17T07:35:35.795Z,62.92
2023-05-17T07:38:04.561Z,62.62
2023-05-17T07:40:33.108Z,62.88
2023-05-17T07:43:01.969Z,62.75
2023-05-17T07:45:30.826Z,62.77
2023-05-17T07:47:59.833Z,62.77
2023-05-17T07:50:28.363Z,62.57
2023-05-17T07:52:57.293Z,62.75
2023-05-17T07:55:26.035Z,62.63
2023-05-17T07:57:55.288Z,62.55
2023-05-17T08:00:25.777Z,62.50
2023-05-17T08:02:54.699Z,62.46
2023-05-17T08:05:23.459Z,62.44
2023-05-17T08:07:52.596Z,62.36
2023-05-17T08:10:21.726Z,62.25
2023-05-17T08:12:50.577Z,62.37
2023-05-17T08:15:19.110Z,62.33
2023-05-17T08:17:47.975Z,62.24
2023-05-17T08:20:16.638Z,62.50
2023-05-17T08:22:45.484Z,62.50
2023-05-17T08:25:13.883Z,62.41
2023-05-17T08:27:42.722Z,62.40
2023-05-17T08:30:17.963Z,62.46
2023-05-17T08:32:50.907Z,62.08
2023-05-17T08:35:19.584Z,62.31
2023-05-17T08:37:48.433Z,62.01
2023-05-17T08:40:20.492Z,62.21
2023-05-17T08:42:53.035Z,62.17
2023-05-17T08:45:22.533Z,62.05
2023-05-17T08:47:51.623Z,61.86
2023-05-17T08:50:20.234Z,61.87
2023-05-17T08:52:49.389Z,61.59
2023-05-17T08:55:18.352Z,61.34
2023-05-17T08:57:47.322Z,61.47
2023-05-17T09:00:17.069Z,61.32
2023-05-17T09:02:45.787Z,61.39
2023-05-17T09:05:17.040Z,61.24
2023-05-17T09:07:45.758Z,61.20
2023-05-17T09:10:14.135Z,61.04
2023-05-17T09:12:43.692Z,60.66
2023-05-17T09:15:20.031Z,60.51
2023-05-17T09:17:55.384Z,60.20
2023-05-17T09:20:35.246Z,59.97
2023-05-17T09:23:05.389Z,60.30
2023-05-17T09:25:33.930Z,60.35
2023-05-17T09:28:04.392Z,60.40
2023-05-17T09:30:34.417Z,60.38
2023-05-17T09:33:09.960Z,60.73
2023-05-17T09:35:39.085Z,60.70
2023-05-17T09:38:13.946Z,60.54
2023-05-17T09:40:44.298Z,60.36
2023-05-17T09:43:13.683Z,60.30
2023-05-17T09:45:42.221Z,60.55
2023-05-17T09:48:19.050Z,60.27
2023-05-17T09:50:50.015Z,60.37
2023-05-17T09:53:38.658Z,60.27
2023-05-17T09:56:07.678Z,59.95
2023-05-17T09:58:39.466Z,59.61
2023-05-17T10:01:09.526Z,59.50
2023-05-17T10:03:38.750Z,59.26
2023-05-17T10:06:09.904Z,59.24
2023-05-17T10:08:44.964Z,59.14
2023-05-17T10:11:13.505Z,59.00
2023-05-17T10:13:53.996Z,59.08
2023-05-17T10:16:23.752Z,59.03
2023-05-17T10:18:52.710Z,58.93
2023-05-17T10:21:21.337Z,58.91
2023-05-17T10:23:50.193Z,59.01
2023-05-17T10:26:18.630Z,58.82
2023-05-17T10:28:47.592Z,58.74
2023-05-17T10:31:15.958Z,58.75
2023-05-17T10:33:47.437Z,58.65
2023-05-17T10:36:17.997Z,58.53
2023-05-17T10:38:46.770Z,58.29
2023-05-17T10:41:15.306Z,58.37
2023-05-17T10:43:44.102Z,58.35
2023-05-17T10:46:22.516Z,58.25
2023-05-17T10:48:52.341Z,58.43
2023-05-17T10:51:30.453Z,58.22
2023-05-17T10:54:22.020Z,57.71
2023-05-17T10:56:52.341Z,57.84
2023-05-17T10:59:29.970Z,57.69
2023-05-17T11:02:05.112Z,57.29
2023-05-17T11:04:41.801Z,57.73
2023-05-17T11:07:22.424Z,57.58
2023-05-17T11:09:52.170Z,57.22
2023-05-17T11:12:47.460Z,57.25
2023-05-17T11:15:17.092Z,57.23
2023-05-17T11:17:51.349Z,57.16
2023-05-17T11:20:26.042Z,57.04
2023-05-17T11:23:02.701Z,57.17
2023-05-17T11:25:38.258Z,56.84
2023-05-17T11:28:18.150Z,56.87
2023-05-17T11:30:54.122Z,57.18
2023-05-17T11:33:44.019Z,57.25
2023-05-17T11:36:21.632Z,57.25
2023-05-17T11:38:55.242Z,57.34
2023-05-17T11:41:30.873Z,57.19
2023-05-17T11:43:59.667Z,57.40
2023-05-17T11:46:28.475Z,57.72
2023-05-17T11:48:57.035Z,57.49
2023-05-17T11:51:25.961Z,57.44
2023-05-17T11:53:55.767Z,57.27
2023-05-17T11:56:35.456Z,57.18
2023-05-17T11:59:11.206Z,56.99
2023-05-17T12:01:46.369Z,56.74
2023-05-17T12:04:15.330Z,56.73
2023-05-17T12:06:45.175Z,56.87
2023-05-17T12:09:18.035Z,56.41
2023-05-17T12:11:48.131Z,56.50
2023-05-17T12:14:20.701Z,56.37
2023-05-17T12:16:54.314Z,56.02
2023-05-17T12:19:25.257Z,56.00
2023-05-17T12:21:54.092Z,55.83
2023-05-17T12:24:22.544Z,55.86
2023-05-17T12:26:51.314Z,55.74
2023-05-17T12:29:23.225Z,55.64
2023-05-17T12:31:52.699Z,55.43
2023-05-17T12:34:21.134Z,55.55
2023-05-17T12:36:49.955Z,55.28
2023-05-17T12:39:23.700Z,54.89
2023-05-17T12:41:52.695Z,52.75
2023-05-17T12:44:21.270Z,52.45
2023-05-17T12:46:58.044Z,51.93
2023-05-17T12:49:26.496Z,51.86
2023-05-17T12:51:55.549Z,51.67
2023-05-17T12:54:30.435Z,51.43
2023-05-17T12:56:59.269Z,51.76
2023-05-17T12:59:29.471Z,52.12
2023-05-17T13:01:58.929Z,52.12
2023-05-17T13:04:32.659Z,51.83
2023-05-17T13:07:04.558Z,51.86
2023-05-17T13:09:34.688Z,51.90
2023-05-17T13:12:07.421Z,52.29
2023-05-17T13:14:47.004Z,52.41
2023-05-17T13:17:45.142Z,52.48
2023-05-17T13:20:13.922Z,52.71
2023-05-17T13:22:49.655Z,52.90
2023-05-17T13:25:18.302Z,53.01
2023-05-17T13:27:49.784Z,52.99
2023-05-17T13:30:18.482Z,52.78
2023-05-17T13:32:47.681Z,52.81
2023-05-17T13:35:16.350Z,52.72
2023-05-17T13:37:46.930Z,52.74
2023-05-17T13:40:16.269Z,52.65
2023-05-17T13:42:45.250Z,52.62
2023-05-17T13:45:14.295Z,52.70
2023-05-17T13:47:43.402Z,52.50
2023-05-17T13:50:12.417Z,52.66
2023-05-17T13:52:41.939Z,52.75
2023-05-17T13:55:10.615Z,52.79
2023-05-17T13:57:39.866Z,52.21
2023-05-17T14:00:09.308Z,52.28
2023-05-17T14:02:38.463Z,52.51
2023-05-17T14:05:09.658Z,52.74
2023-05-17T14:07:43.954Z,52.70
2023-05-17T14:10:13.340Z,52.81
2023-05-17T14:12:42.599Z,52.98
2023-05-17T14:15:11.856Z,53.01
2023-05-17T14:17:41.809Z,53.00
2023-05-17T14:20:11.392Z,53.15
2023-05-17T14:22:41.349Z,53.22
2023-05-17T14:25:11.897Z,53.31
2023-05-17T14:27:40.916Z,53.37
2023-05-17T14:30:11.582Z,53.44
2023-05-17T14:32:42.999Z,53.57
2023-05-17T14:35:11.841Z,53.76
2023-05-17T14:37:40.964Z,53.58
2023-05-17T14:40:10.331Z,53.58
2023-05-17T14:42:40.108Z,53.55
2023-05-17T14:45:09.388Z,53.53
2023-05-17T14:47:38.450Z,53.75
2023-05-17T14:50:08.081Z,53.76
2023-05-17T14:52:37.133Z,53.67
2023-05-17T14:55:06.352Z,53.82
2023-05-17T14:57:35.493Z,53.87
2023-05-17T15:00:10.524Z,53.79
2023-05-17T15:02:39.661Z,53.68
2023-05-17T15:05:09.025Z,53.87
2023-05-17T15:07:38.192Z,53.84
2023-05-17T15:10:08.600Z,53.71
2023-05-17T15:12:37.300Z,53.75
2023-05-17T15:15:06.974Z,53.82
2023-05-17T15:17:35.658Z,53.97
2023-05-17T15:20:05.170Z,53.96
2023-05-17T15:22:34.284Z,53.91
2023-05-17T15:25:03.429Z,53.90
2023-05-17T15:27:32.036Z,53.97
2023-05-17T15:30:01.377Z,54.10
2023-05-17T15:32:30.061Z,54.05
2023-05-17T15:34:59.437Z,54.03
2023-05-17T15:37:28.076Z,53.87
2023-05-17T15:39:57.339Z,53.99
2023-05-17T15:42:26.193Z,53.94
2023-05-17T15:44:55.194Z,54.02
2023-05-17T15:47:31.577Z,54.16
2023-05-17T15:50:08.593Z,54.06
2023-05-17T15:52:37.306Z,54.08
2023-05-17T15:55:06.996Z,54.07
2023-05-17T15:57:35.922Z,53.82
2023-05-17T16:00:05.751Z,53.85
2023-05-17T16:02:34.915Z,54.01
2023-05-17T16:05:04.386Z,53.76
2023-05-17T16:07:33.229Z,54.01
2023-05-17T16:10:02.555Z,53.81
2023-05-17T16:12:31.361Z,53.79
2023-05-17T16:15:00.350Z,53.85
2023-05-17T16:17:29.103Z,53.77
2023-05-17T16:19:58.345Z,53.80
2023-05-17T16:22:27.392Z,53.76
2023-05-17T16:24:57.615Z,53.89
2023-05-17T16:27:26.399Z,53.90
2023-05-17T16:29:55.398Z,53.84
2023-05-17T16:32:24.139Z,53.91
2023-05-17T16:34:53.164Z,54.05
2023-05-17T16:37:21.929Z,53.96
2023-05-17T16:39:50.958Z,53.89
2023-05-17T16:42:19.716Z,53.91
2023-05-17T16:44:48.777Z,53.96
2023-05-17T16:47:17.852Z,53.89
2023-05-17T16:49:46.912Z,53.91
2023-05-17T16:52:15.565Z,53.73
2023-05-17T16:54:44.542Z,53.77
2023-05-17T16:57:13.194Z,53.70
2023-05-17T16:59:42.274Z,53.45
2023-05-17T17:02:10.994Z,53.66
2023-05-17T17:04:40.099Z,53.73
2023-05-17T17:07:09.021Z,53.57
2023-05-17T17:09:38.050Z,53.64
2023-05-17T17:12:20.080Z,53.50
2023-05-17T17:14:52.591Z,53.45
2023-05-17T17:17:21.628Z,53.41
2023-05-17T17:19:50.851Z,53.52
2023-05-17T17:22:19.574Z,53.40
2023-05-17T17:24:48.711Z,53.66
2023-05-17T17:27:17.418Z,53.48
2023-05-17T17:29:46.451Z,53.38
2023-05-17T17:32:15.205Z,53.38
2023-05-17T17:34:44.280Z,53.67
2023-05-17T17:37:12.993Z,53.14
2023-05-17T17:39:42.327Z,53.04
2023-05-17T17:42:11.472Z,52.88
2023-05-17T17:44:40.512Z,52.66
2023-05-17T17:47:09.189Z,52.09
2023-05-17T17:49:38.438Z,52.19
2023-05-17T17:52:07.256Z,50.89
2023-05-17T17:54:36.668Z,50.58
2023-05-17T17:57:05.545Z,50.48
2023-05-17T17:59:34.599Z,50.04
2023-05-17T18:02:03.009Z,50.28
2023-05-17T18:04:31.856Z,49.91
2023-05-17T18:07:02.236Z,50.21
2023-05-17T18:09:31.185Z,49.70
2023-05-17T18:11:59.837Z,50.53
2023-05-17T18:14:28.899Z,50.80
2023-05-17T18:16:57.640Z,50.59
2023-05-17T18:19:26.778Z,50.28
2023-05-17T18:21:55.706Z,50.49
2023-05-17T18:24:24.773Z,50.55
2023-05-17T18:26:53.116Z,50.71
2023-05-17T18:29:21.912Z,50.86
2023-05-17T18:31:52.082Z,50.29
2023-05-17T18:34:21.024Z,50.75
2023-05-17T18:36:49.531Z,50.84
2023-05-17T18:39:18.323Z,50.93
2023-05-17T18:41:46.776Z,51.21
2023-05-17T18:44:16.561Z,51.13
2023-05-17T18:46:46.846Z,51.13
2023-05-17T18:49:16.565Z,51.23
2023-05-17T18:51:44.994Z,51.32
2023-05-17T18:54:13.785Z,51.82
2023-05-17T18:56:42.239Z,52.45
2023-05-17T18:59:11.444Z,52.71
2023-05-17T19:01:39.936Z,52.96
2023-05-17T19:04:08.954Z,52.69
2023-05-17T19:06:41.541Z,52.42
2023-05-17T19:09:10.516Z,52.71
2023-05-17T19:11:39.255Z,52.73
2023-05-17T19:14:08.516Z,53.05
2023-05-17T19:16:37.547Z,53.21
2023-05-17T19:19:08.905Z,53.34
2023-05-17T19:21:38.120Z,53.08
2023-05-17T19:24:07.920Z,53.10
2023-05-17T19:26:36.886Z,53.26
2023-05-17T19:29:06.415Z,53.20
2023-05-17T19:31:36.406Z,53.29
2023-05-17T19:34:07.484Z,53.18
2023-05-17T19:36:38.540Z,53.30
2023-05-17T19:39:14.497Z,53.30
2023-05-17T19:41:43.477Z,53.29
2023-05-17T19:44:15.296Z,53.36
2023-05-17T19:46:49.463Z,53.25
2023-05-17T19:49:20.547Z,53.21
2023-05-17T19:51:51.342Z,53.13
2023-05-17T19:54:23.787Z,53.42
2023-05-17T19:56:55.390Z,53.30
2023-05-17T19:59:27.648Z,53.35
2023-05-17T20:01:56.620Z,53.51
2023-05-17T20:04:27.119Z,53.46
2023-05-17T20:06:57.183Z,53.25
2023-05-17T20:09:32.167Z,53.29
2023-05-17T20:12:02.228Z,53.51
2023-05-17T20:14:31.469Z,53.37
2023-05-17T20:17:00.087Z,53.73
2023-05-17T20:19:29.706Z,53.41
2023-05-17T20:21:58.500Z,53.72
2023-05-17T20:24:29.477Z,53.37
2023-05-17T20:26:58.028Z,53.65
2023-05-17T20:29:26.878Z,53.62
2023-05-17T20:31:55.588Z,53.55
2023-05-17T20:34:28.478Z,53.65
2023-05-17T20:36:57.732Z,53.53
2023-05-17T20:39:28.708Z,54.14
2023-05-17T20:41:58.481Z,53.50
2023-05-17T20:44:27.586Z,54.05
2023-05-17T20:46:59.279Z,53.95
2023-05-17T20:49:28.336Z,54.21
2023-05-17T20:52:03.541Z,53.84
2023-05-17T20:54:32.569Z,53.66
2023-05-17T20:57:02.239Z,54.24
2023-05-17T20:59:31.259Z,54.15
2023-05-17T21:01:59.917Z,54.03
2023-05-17T21:04:28.816Z,54.08
2023-05-17T21:06:58.454Z,54.34
2023-05-17T21:09:27.461Z,54.41
2023-05-17T21:11:56.193Z,54.34
2023-05-17T21:14:25.279Z,54.57
2023-05-17T21:16:55.857Z,54.61
2023-05-17T21:19:25.081Z,54.29
2023-05-17T21:21:53.963Z,54.42
2023-05-17T21:24:23.692Z,54.25
2023-05-17T21:26:52.413Z,54.27
2023-05-17T21:29:21.533Z,54.25
2023-05-17T21:31:50.258Z,54.27
2023-05-17T21:34:19.563Z,54.22
2023-05-17T21:36:48.520Z,54.42
2023-05-17T21:39:17.595Z,54.35
2023-05-17T21:41:46.399Z,54.46
2023-05-17T21:44:15.653Z,54.60
2023-05-17T21:46:44.415Z,54.50
2023-05-17T21:49:13.549Z,54.83
2023-05-17T21:51:44.096Z,54.73
2023-05-17T21:54:13.452Z,54.50
2023-05-17T21:56:42.137Z,54.64
2023-05-17T21:59:11.459Z,54.77
2023-05-17T22:01:40.197Z,54.92
2023-05-17T22:04:09.854Z,54.89
2023-05-17T22:06:38.712Z,54.90
2023-05-17T22:09:09.728Z,55.04
2023-05-17T22:11:39.407Z,55.06
2023-05-17T22:14:08.730Z,54.98
2023-05-17T22:16:37.799Z,55.26
2023-05-17T22:19:07.325Z,54.78
2023-05-17T22:21:36.430Z,54.79
2023-05-17T22:24:05.848Z,55.05
2023-05-17T22:26:34.810Z,55.09
2023-05-17T22:29:04.037Z,54.98
2023-05-17T22:31:38.008Z,55.10
2023-05-17T22:34:07.299Z,55.26
2023-05-17T22:36:36.179Z,55.03
2023-05-17T22:39:05.617Z,55.06
2023-05-17T22:41:34.417Z,55.08
2023-05-17T22:44:03.638Z,55.33
2023-05-17T22:46:33.658Z,55.17
2023-05-17T22:49:02.870Z,55.09
2023-05-17T22:51:35.203Z,55.47
2023-05-17T22:54:04.552Z,55.21
2023-05-17T22:56:33.467Z,55.42
2023-05-17T22:59:02.560Z,55.49
2023-05-17T23:01:31.330Z,55.22
2023-05-17T23:04:00.556Z,55.30
2023-05-17T23:06:32.410Z,55.30
2023-05-17T23:09:05.682Z,55.26
2023-05-17T23:11:35.062Z,55.39
2023-05-17T23:14:04.360Z,55.38
2023-05-17T23:16:33.090Z,55.46
2023-05-17T23:19:03.420Z,55.30
2023-05-17T23:21:33.766Z,55.43
2023-05-17T23:24:02.821Z,55.29
2023-05-17T23:26:31.710Z,55.30
2023-05-17T23:29:00.765Z,55.34
2023-05-17T23:31:30.446Z,55.31
2023-05-17T23:33:59.594Z,55.31
2023-05-17T23:36:28.407Z,55.31
2023-05-17T23:38:57.416Z,55.20
2023-05-17T23:41:26.368Z,55.23
2023-05-17T23:43:57.329Z,55.13
2023-05-17T23:46:27.282Z,54.99
2023-05-17T23:48:57.688Z,54.93
2023-05-17T23:51:26.464Z,55.09
2023-05-17T23:53:55.600Z,54.85
2023-05-17T23:56:24.374Z,54.79
2023-05-17T23:58:53.712Z,54.88
